Time;durP1;ratioP1;P1;durP2;ratioP2;P2;SDS_P1;SDS_P2;PMS_P1;PMS_P2;Temp;Humidity;BMP_temperature;BMP_pressure;BME280_temperature;BME280_humidity;BME280_pressure;Samples;Min_cycle;Max_cycle;Signal;HPM_P1;HPM_P2
2022/10/19 00:00:46;;;;;;;10.40;3.03;;;;;;;21.36;68.66;101214.88;5015589;28;20440;-70
2022/10/19 00:03:12;;;;;;;6.17;3.47;;;;;;;21.34;68.61;101229.66;5011479;28;20553;-70
2022/10/19 00:05:37;;;;;;;8.33;3.60;;;;;;;21.34;68.28;101223.91;5012533;28;20575;-70
2022/10/19 00:08:03;;;;;;;7.77;3.20;;;;;;;21.35;68.45;101225.56;5016863;28;20567;-70
2022/10/19 00:10:28;;;;;;;6.03;3.77;;;;;;;21.33;68.43;101225.09;5016604;28;20212;-70
2022/10/19 00:12:54;;;;;;;4.70;3.17;;;;;;;21.35;68.27;101221.84;5016759;28;20207;-70
2022/10/19 00:15:19;;;;;;;6.30;2.70;;;;;;;21.34;68.76;101223.91;5017062;28;20173;-71
2022/10/19 00:17:45;;;;;;;7.33;3.27;;;;;;;21.33;68.46;101216.47;4999280;28;20173;-70
2022/10/19 00:20:10;;;;;;;7.30;3.30;;;;;;;21.32;68.83;101220.56;5028884;28;20224;-70
2022/10/19 00:22:36;;;;;;;6.57;3.07;;;;;;;21.31;68.75;101213.16;4999269;28;20169;-70
2022/10/19 00:25:01;;;;;;;8.73;3.47;;;;;;;21.31;68.95;101201.69;5015383;28;20204;-71
2022/10/19 00:27:26;;;;;;;9.60;3.40;;;;;;;21.31;68.63;101192.22;5015578;28;20169;-70
2022/10/19 00:29:52;;;;;;;7.47;3.40;;;;;;;21.32;68.39;101196.78;5016915;28;20177;-70
2022/10/19 00:32:17;;;;;;;7.23;2.93;;;;;;;21.31;68.71;101195.94;5015441;28;20157;-70
2022/10/19 00:34:43;;;;;;;7.57;3.17;;;;;;;21.30;68.51;101197.16;5015255;28;20165;-70
2022/10/19 00:37:08;;;;;;;7.30;3.10;;;;;;;21.30;68.90;101200.03;5016854;28;20169;-70
2022/10/19 00:39:34;;;;;;;5.13;2.80;;;;;;;21.29;68.91;101209.84;5016919;28;20231;-70
2022/10/19 00:41:59;;;;;;;9.10;4.00;;;;;;;21.30;69.02;101211.50;5031542;28;20259;-70
2022/10/19 00:44:27;;;;;;;8.03;3.53;;;;;;;21.29;68.49;101211.88;5015001;28;20212;-70
2022/10/19 00:46:53;;;;;;;8.03;3.60;;;;;;;21.29;68.56;101215.59;5017351;28;20162;-70
2022/10/19 00:49:20;;;;;;;5.30;2.73;;;;;;;21.29;69.02;101214.75;4999495;28;20435;-70
2022/10/19 00:51:48;;;;;;;5.20;2.93;;;;;;;21.30;68.53;101217.25;4982617;28;20185;-70
2022/10/19 00:54:13;;;;;;;4.30;2.57;;;;;;;21.30;68.62;101219.28;4998361;28;20483;-70
2022/10/19 00:56:40;;;;;;;4.40;3.03;;;;;;;21.29;68.29;101221.34;4998697;28;20428;-70
2022/10/19 00:59:05;;;;;;;7.83;3.17;;;;;;;21.28;68.96;101222.53;5015089;28;20177;-70
2022/10/19 01:01:31;;;;;;;5.10;3.23;;;;;;;21.28;68.56;101213.91;5010249;23;20948;-82
2022/10/19 01:03:57;;;;;;;4.63;3.10;;;;;;;21.29;68.79;101220.50;4975368;28;20308;-77
2022/10/19 01:06:22;;;;;;;5.23;3.40;;;;;;;21.28;68.67;101207.34;4976595;28;20169;-79
2022/10/19 01:08:48;;;;;;;6.30;3.30;;;;;;;21.29;68.78;101209.84;4960701;28;20181;-77
2022/10/19 01:11:43;;;;;;;5.17;3.00;;;;;;;21.28;68.64;101205.28;4992819;28;20181;-79
2022/10/19 01:14:37;;;;;;;4.70;2.80;;;;;;;21.27;68.57;101200.75;4992694;28;20172;-80
2022/10/19 01:17:27;;;;;;;3.53;2.50;;;;;;;21.28;68.99;101208.16;4977654;28;20424;-80
2022/10/19 01:20:17;;;;;;;5.73;3.23;;;;;;;21.28;68.86;101213.91;4990873;28;20861;-80
2022/10/19 01:23:19;;;;;;;4.60;3.10;;;;;;;21.27;68.98;101203.63;4990299;28;20413;-79
2022/10/19 01:26:13;;;;;;;5.33;3.30;;;;;;;21.26;68.97;101204.00;4987908;28;20575;-81
2022/10/19 01:28:41;;;;;;;7.67;3.83;;;;;;;21.27;68.70;101203.63;4972837;28;20460;-80
2022/10/19 01:31:19;;;;;;;4.03;2.83;;;;;;;21.26;68.54;101204.84;4989756;28;20425;-80
2022/10/19 01:34:09;;;;;;;4.30;2.93;;;;;;;21.27;68.49;101202.81;4990255;28;20416;-78
2022/10/19 01:36:51;;;;;;;6.57;3.70;;;;;;;21.26;68.83;101181.88;4973026;28;20515;-80
2022/10/19 01:39:28;;;;;;;7.10;2.80;;;;;;;21.25;68.97;101185.97;4990254;28;20975;-79
2022/10/19 01:42:10;;;;;;;5.13;3.10;;;;;;;21.27;68.74;101182.72;4954426;28;20429;-79
2022/10/19 01:44:51;;;;;;;4.30;2.63;;;;;;;21.27;68.47;101177.78;4972839;28;20816;-80
2022/10/19 01:47:23;;;;;;;7.77;3.43;;;;;;;21.25;68.63;101165.84;4990511;28;20414;-80
2022/10/19 01:49:56;;;;;;;7.00;2.70;;;;;;;21.26;68.78;101172.41;4973342;28;20452;-80
2022/10/19 01:52:22;;;;;;;6.90;3.57;;;;;;;21.26;68.90;101169.53;4973181;28;20460;-79
2022/10/19 01:54:49;;;;;;;6.10;2.60;;;;;;;21.26;68.79;101172.41;4956687;28;20515;-80
2022/10/19 01:57:19;;;;;;;5.10;2.67;;;;;;;21.25;68.93;101168.72;4972773;28;20173;-79
2022/10/19 01:59:44;;;;;;;4.43;2.50;;;;;;;21.24;68.78;101167.06;4989031;28;20417;-80
2022/10/19 02:02:11;;;;;;;5.80;2.77;;;;;;;21.24;68.67;101161.31;4956752;28;20483;-79
2022/10/19 02:04:36;;;;;;;5.10;2.93;;;;;;;21.25;69.04;101168.72;4972877;28;20212;-80
2022/10/19 02:07:02;;;;;;;4.53;2.90;;;;;;;21.24;68.65;101166.22;4972181;28;20409;-80
2022/10/19 02:09:27;;;;;;;5.07;3.00;;;;;;;21.23;68.77;101165.38;4973056;28;20213;-79
2022/10/19 02:11:55;;;;;;;5.70;3.30;;;;;;;21.24;68.95;101166.22;4987729;28;20538;-79
2022/10/19 02:14:22;;;;;;;5.93;2.93;;;;;;;21.24;68.92;101166.22;4973113;28;20173;-79
2022/10/19 02:16:58;;;;;;;5.10;2.83;;;;;;;21.24;68.76;101161.31;4955994;28;20425;-80
2022/10/19 02:19:24;;;;;;;4.40;3.20;;;;;;;21.24;68.60;101161.31;4987522;28;20456;-79
2022/10/19 02:21:49;;;;;;;6.93;3.37;;;;;;;21.24;68.97;101160.47;4972182;28;20455;-78
2022/10/19 02:24:15;;;;;;;4.47;2.80;;;;;;;21.23;68.66;101165.38;4955772;28;20188;-79
2022/10/19 02:26:40;;;;;;;4.40;3.17;;;;;;;21.23;68.91;101164.56;4988928;28;20565;-78
2022/10/19 02:29:06;;;;;;;4.77;2.90;;;;;;;21.24;68.76;101160.47;4955438;28;20244;-79
2022/10/19 02:31:31;;;;;;;9.07;3.10;;;;;;;21.23;68.69;101159.63;4971582;28;20202;-78
2022/10/19 02:33:56;;;;;;;5.07;3.10;;;;;;;21.21;68.79;101156.31;4972359;28;20676;-80
2022/10/19 02:36:22;;;;;;;4.43;2.40;;;;;;;21.23;69.15;101161.69;4955696;28;20513;-80
2022/10/19 02:38:48;;;;;;;5.43;2.87;;;;;;;21.22;68.86;101152.22;4956825;28;20178;-80
2022/10/19 02:41:19;;;;;;;5.23;2.63;;;;;;;21.22;68.98;101157.97;4972550;28;20292;-79
2022/10/19 02:43:47;;;;;;;8.73;2.50;;;;;;;21.21;68.98;101156.31;4943566;28;20276;-80
2022/10/19 02:46:31;;;;;;;4.47;2.80;;;;;;;21.22;69.03;101149.38;4943776;28;20535;-78
2022/10/19 02:48:57;;;;;;;5.30;3.17;;;;;;;21.22;68.78;101137.88;4961272;28;20507;-80
2022/10/19 02:51:29;;;;;;;4.90;2.90;;;;;;;21.21;68.98;101136.22;4959588;28;20425;-78
2022/10/19 02:53:55;;;;;;;3.97;2.87;;;;;;;21.21;68.79;101139.09;4976198;28;20197;-80
2022/10/19 02:56:21;;;;;;;6.30;2.77;;;;;;;21.21;68.88;101132.50;4993150;28;20413;-78
2022/10/19 02:58:47;;;;;;;4.07;2.67;;;;;;;21.22;68.94;101112.03;4975951;28;20166;-79
2022/10/19 03:01:13;;;;;;;3.83;2.83;;;;;;;21.21;68.93;101113.25;4959704;28;20804;-79
2022/10/19 03:03:38;;;;;;;6.57;2.90;;;;;;;21.21;69.04;101106.66;4991960;28;20300;-80
2022/10/19 03:06:04;;;;;;;4.73;2.70;;;;;;;21.21;68.90;101112.41;4975588;28;20460;-80
2022/10/19 03:08:29;;;;;;;7.13;3.40;;;;;;;21.20;69.16;101108.72;4943755;28;20842;-79
2022/10/19 03:10:57;;;;;;;3.60;2.60;;;;;;;21.20;68.65;101108.72;4975013;28;20465;-79
2022/10/19 03:13:25;;;;;;;3.90;2.70;;;;;;;21.20;68.55;101111.59;4975228;28;20599;-79
2022/10/19 03:15:51;;;;;;;4.97;2.77;;;;;;;21.21;68.61;101115.28;4991195;28;20425;-79
2022/10/19 03:18:16;;;;;;;5.40;3.03;;;;;;;21.20;68.60;101114.47;4975509;28;20815;-79
2022/10/19 03:20:42;;;;;;;4.00;2.53;;;;;;;21.20;69.07;101114.47;4991562;28;20192;-78
2022/10/19 03:23:07;;;;;;;8.70;2.90;;;;;;;21.20;69.11;101107.88;4991638;28;20566;-79
2022/10/19 03:25:33;;;;;;;4.30;2.67;;;;;;;21.18;68.71;101108.25;4975107;28;20197;-77
2022/10/19 03:27:58;;;;;;;5.70;3.27;;;;;;;21.19;68.79;101106.22;4992882;28;20166;-78
2022/10/19 03:30:24;;;;;;;4.70;3.30;;;;;;;21.18;69.40;101096.75;4991929;28;20265;-80
2022/10/19 03:32:49;;;;;;;3.60;2.33;;;;;;;21.19;68.51;101098.44;4974443;28;20169;-78
2022/10/19 03:35:15;;;;;;;3.97;2.93;;;;;;;21.19;69.06;101101.31;4969063;28;20198;-79
2022/10/19 03:37:40;;;;;;;5.60;2.97;;;;;;;21.19;69.00;101109.09;4939741;28;20540;-82
2022/10/19 03:40:06;;;;;;;6.00;2.90;;;;;;;21.17;69.58;101092.22;4977151;28;20282;-79
2022/10/19 03:42:31;;;;;;;4.53;2.70;;;;;;;21.17;69.11;101097.97;4992567;28;20189;-74
2022/10/19 03:44:57;;;;;;;3.93;2.40;;;;;;;21.18;69.13;101099.63;4958862;28;20221;-80
2022/10/19 03:47:22;;;;;;;3.67;2.50;;;;;;;21.17;69.11;101092.22;4958600;28;20629;-78
2022/10/19 03:49:49;;;;;;;4.17;2.50;;;;;;;21.17;69.17;101095.09;4974713;28;20709;-79
2022/10/19 03:52:16;;;;;;;3.97;2.43;;;;;;;21.16;68.90;101096.31;4955761;28;20651;-79
2022/10/19 03:54:41;;;;;;;4.80;2.57;;;;;;;21.17;69.18;101095.09;4974695;28;20421;-74
2022/10/19 03:57:07;;;;;;;3.40;2.43;;;;;;;21.17;68.76;101103.72;4975111;28;20417;-80
2022/10/19 03:59:32;;;;;;;3.93;2.47;;;;;;;21.17;69.13;101103.72;4975378;28;20209;-76
2022/10/19 04:01:57;;;;;;;3.60;2.50;;;;;;;21.17;68.94;101102.91;4975413;28;20218;-80
2022/10/19 04:04:23;;;;;;;4.17;2.70;;;;;;;21.17;68.92;101102.91;4974343;28;20170;-79
2022/10/19 04:06:49;;;;;;;3.33;2.43;;;;;;;21.17;68.84;101100.84;4974478;28;20181;-80
2022/10/19 04:09:18;;;;;;;5.30;2.60;;;;;;;21.18;69.39;101098.81;4957851;28;20267;-78
2022/10/19 04:11:43;;;;;;;3.53;2.33;;;;;;;21.17;68.93;101097.97;4971641;28;20236;-79
2022/10/19 04:14:13;;;;;;;3.63;2.70;;;;;;;21.16;69.02;101096.31;4973474;28;20491;-80
2022/10/19 04:16:38;;;;;;;4.50;2.67;;;;;;;21.17;69.22;101097.16;4957720;28;20166;-79
2022/10/19 04:19:04;;;;;;;3.73;2.43;;;;;;;21.16;68.95;101102.06;4957307;28;20495;-79
2022/10/19 04:21:33;;;;;;;9.67;3.27;;;;;;;21.17;68.85;101103.72;4991194;28;20689;-79
2022/10/19 04:24:04;;;;;;;3.80;2.77;;;;;;;21.17;69.33;101100.84;4957542;28;20169;-79
2022/10/19 04:26:30;;;;;;;4.37;2.73;;;;;;;21.16;69.14;101104.94;5006808;28;20460;-79
2022/10/19 04:29:01;;;;;;;3.90;2.27;;;;;;;21.17;69.08;101100.84;4974471;28;20405;-80
2022/10/19 04:31:27;;;;;;;4.67;2.50;;;;;;;21.17;68.73;101097.97;4974660;28;20174;-79
2022/10/19 04:33:52;;;;;;;6.50;2.80;;;;;;;21.17;68.63;101095.09;4974417;28;20479;-79
2022/10/19 04:36:18;;;;;;;3.77;2.40;;;;;;;21.17;69.04;101097.97;4990447;28;20501;-78
2022/10/19 04:38:43;;;;;;;3.63;2.40;;;;;;;21.17;68.70;101095.09;4974166;28;20616;-78
2022/10/19 04:41:11;;;;;;;4.80;2.93;;;;;;;21.18;68.97;101096.75;4989975;28;20193;-80
2022/10/19 04:43:36;;;;;;;3.03;2.33;;;;;;;21.17;68.71;101100.84;4958120;28;20190;-80
2022/10/19 04:46:06;;;;;;;3.47;2.50;;;;;;;21.16;69.19;101099.19;4957774;28;20523;-75
2022/10/19 04:48:32;;;;;;;3.43;2.30;;;;;;;21.16;69.26;101107.81;4958009;28;20166;-79
2022/10/19 04:50:58;;;;;;;3.80;2.57;;;;;;;21.16;69.21;101107.81;4974373;28;20796;-79
2022/10/19 04:53:23;;;;;;;5.30;2.57;;;;;;;21.17;69.25;101108.66;4941972;28;20425;-80
2022/10/19 04:55:49;;;;;;;5.77;2.77;;;;;;;21.17;69.15;101108.66;4973782;28;20158;-80
2022/10/19 04:58:14;;;;;;;3.60;2.30;;;;;;;21.17;69.04;101106.59;4958000;28;20162;-82
2022/10/19 05:00:40;;;;;;;4.83;2.40;;;;;;;21.15;68.86;101103.28;4957274;28;20178;-80
2022/10/19 05:03:05;;;;;;;10.43;2.40;;;;;;;21.16;68.85;101102.06;4973853;28;20716;-80
2022/10/19 05:05:31;;;;;;;3.47;2.60;;;;;;;21.17;68.74;101105.78;4971978;28;20260;-80
2022/10/19 05:07:57;;;;;;;4.17;2.63;;;;;;;21.16;69.08;101113.56;4964623;28;20209;-80
2022/10/19 05:10:22;;;;;;;3.40;2.47;;;;;;;21.15;69.06;101116.78;4983500;28;20186;-78
2022/10/19 05:12:47;;;;;;;4.03;2.50;;;;;;;21.15;69.04;101105.31;4954418;28;20717;-79
2022/10/19 05:15:13;;;;;;;3.43;2.20;;;;;;;21.16;69.03;101112.72;4953974;28;20171;-80
2022/10/19 05:17:38;;;;;;;3.20;2.10;;;;;;;21.14;69.30;101107.38;4953783;28;20202;-79
2022/10/19 05:20:04;;;;;;;3.40;2.57;;;;;;;21.16;69.13;101107.81;4970357;28;20163;-81
2022/10/19 05:22:30;;;;;;;3.73;2.50;;;;;;;21.15;69.12;101103.28;4954411;28;20619;-80
2022/10/19 05:24:55;;;;;;;3.80;2.90;;;;;;;21.16;68.77;101106.97;4937975;28;20548;-78
2022/10/19 05:27:21;;;;;;;3.73;2.40;;;;;;;21.16;69.30;101098.34;4984125;28;20185;-80
2022/10/19 05:29:46;;;;;;;4.23;2.70;;;;;;;21.16;69.16;101101.22;4973596;28;20173;-79
2022/10/19 05:32:12;;;;;;;2.90;2.30;;;;;;;21.16;68.93;101095.47;4973949;28;20177;-73
2022/10/19 05:34:37;;;;;;;4.30;2.70;;;;;;;21.14;69.25;101087.28;4973079;28;20193;-72
2022/10/19 05:37:03;;;;;;;3.13;2.10;;;;;;;21.13;69.34;101085.59;4956291;28;20205;-73
2022/10/19 05:39:28;;;;;;;3.37;2.07;;;;;;;21.15;68.91;101082.34;4972553;28;20178;-72
2022/10/19 05:41:54;;;;;;;5.07;2.60;;;;;;;21.15;69.46;101085.22;4973120;28;20189;-72
2022/10/19 05:44:21;;;;;;;3.10;2.00;;;;;;;21.14;68.83;101087.28;4972912;28;20181;-73
2022/10/19 05:46:48;;;;;;;3.23;2.10;;;;;;;21.13;68.88;101093.38;4972201;28;20228;-72
2022/10/19 05:49:14;;;;;;;3.33;2.33;;;;;;;21.12;69.11;101092.53;4956082;28;20545;-73
2022/10/19 05:51:39;;;;;;;5.50;2.60;;;;;;;21.13;68.90;101085.59;4956271;28;20416;-72
2022/10/19 05:54:06;;;;;;;4.27;2.60;;;;;;;21.13;69.08;101088.44;4940101;28;21246;-73
2022/10/19 05:56:32;;;;;;;3.53;2.40;;;;;;;21.13;69.31;101088.44;4956201;28;20158;-73
2022/10/19 05:58:58;;;;;;;4.33;2.40;;;;;;;21.11;69.28;101093.75;4971497;28;20443;-72
2022/10/19 06:01:24;;;;;;;4.67;3.00;;;;;;;21.12;69.09;101083.94;4972330;28;20189;-73
2022/10/19 06:03:50;;;;;;;3.63;2.40;;;;;;;21.12;68.79;101089.66;4940111;28;20468;-73
2022/10/19 06:06:16;;;;;;;3.30;2.43;;;;;;;21.12;69.40;101097.47;4970238;28;20253;-73
2022/10/19 06:08:41;;;;;;;3.90;2.57;;;;;;;21.12;69.25;101101.16;4954000;28;20436;-73
2022/10/19 06:11:12;;;;;;;4.60;2.53;;;;;;;21.12;69.19;101094.59;4971602;28;20189;-73
2022/10/19 06:13:38;;;;;;;3.53;2.60;;;;;;;21.12;69.40;101094.59;4957086;28;20186;-73
2022/10/19 06:16:04;;;;;;;6.53;2.70;;;;;;;21.13;69.44;101102.00;4973009;28;20424;-72
2022/10/19 06:18:29;;;;;;;5.00;2.33;;;;;;;21.13;69.14;101099.13;4976702;28;20960;-72
2022/10/19 06:20:55;;;;;;;3.40;2.57;;;;;;;21.12;69.22;101098.28;4960614;28;20433;-73
2022/10/19 06:23:20;;;;;;;4.20;2.60;;;;;;;21.12;69.17;101092.53;4960404;28;20177;-72
2022/10/19 06:25:46;;;;;;;3.43;2.20;;;;;;;21.13;69.26;101099.13;4959496;28;20598;-72
2022/10/19 06:28:11;;;;;;;2.97;2.00;;;;;;;21.14;69.07;101095.88;4960231;28;20189;-72
2022/10/19 06:30:40;;;;;;;2.90;2.20;;;;;;;21.12;69.40;101094.59;4992135;28;20251;-73
2022/10/19 06:33:05;;;;;;;5.00;2.90;;;;;;;21.14;69.14;101104.50;4975813;28;20750;-73
2022/10/19 06:35:31;;;;;;;2.87;2.03;;;;;;;21.13;69.19;101097.06;4976025;28;20420;-72
2022/10/19 06:37:57;;;;;;;3.40;2.50;;;;;;;21.13;69.31;101102.81;4992168;28;20979;-72
2022/10/19 06:40:23;;;;;;;2.90;2.10;;;;;;;21.13;68.86;101104.88;4992288;28;20186;-73
2022/10/19 06:42:49;;;;;;;4.67;2.77;;;;;;;21.15;68.97;101111.06;4948933;28;20178;-73
2022/10/19 06:45:14;;;;;;;5.30;2.67;;;;;;;21.14;69.25;101110.25;4975208;28;20464;-73
2022/10/19 06:47:40;;;;;;;3.60;2.47;;;;;;;21.14;68.95;101115.97;4975748;28;20317;-73
2022/10/19 06:50:05;;;;;;;3.50;2.50;;;;;;;21.13;69.06;101117.16;4979870;28;20170;-73
2022/10/19 06:52:32;;;;;;;3.83;2.53;;;;;;;21.15;68.96;101119.66;4975932;28;20216;-73
2022/10/19 06:54:57;;;;;;;3.63;2.50;;;;;;;21.14;69.03;101115.97;4991859;28;20190;-73
2022/10/19 06:57:23;;;;;;;3.30;2.13;;;;;;;21.16;69.38;101124.19;4976253;28;20902;-73
2022/10/19 06:59:48;;;;;;;2.97;2.03;;;;;;;21.15;69.31;101111.91;4991704;28;20561;-73
2022/10/19 07:02:14;;;;;;;2.77;2.27;;;;;;;21.15;68.94;101122.53;4972174;28;20273;-73
2022/10/19 07:04:39;;;;;;;3.70;2.43;;;;;;;21.13;69.01;101108.56;4988788;28;20214;-73
2022/10/19 07:07:05;;;;;;;3.57;2.30;;;;;;;21.14;69.00;101118.84;4987324;28;20218;-73
2022/10/19 07:09:30;;;;;;;5.20;2.30;;;;;;;21.15;69.01;101111.06;4967817;28;20800;-73
2022/10/19 07:11:55;;;;;;;3.33;2.57;;;;;;;21.15;69.35;101105.31;4971796;28;20229;-73
2022/10/19 07:14:23;;;;;;;3.77;2.60;;;;;;;21.13;69.06;101102.00;4970154;28;20186;-73
2022/10/19 07:16:49;;;;;;;3.47;2.30;;;;;;;21.15;69.22;101103.28;4971362;28;20186;-73
2022/10/19 07:19:14;;;;;;;3.77;2.40;;;;;;;21.15;69.27;101103.28;4939432;28;20493;-73
2022/10/19 07:21:41;;;;;;;4.20;2.53;;;;;;;21.14;68.83;101104.50;4985805;28;20217;-73
2022/10/19 07:24:07;;;;;;;2.90;2.30;;;;;;;21.15;69.06;101100.41;4971012;28;20201;-73
2022/10/19 07:26:33;;;;;;;2.70;1.90;;;;;;;21.15;69.31;101097.53;4989710;28;20496;-73
2022/10/19 07:28:58;;;;;;;2.97;2.20;;;;;;;21.16;68.58;101099.19;4971019;28;20179;-72
2022/10/19 07:31:24;;;;;;;3.90;2.60;;;;;;;21.13;69.20;101097.06;4955388;28;20784;-73
2022/10/19 07:33:54;;;;;;;3.27;2.33;;;;;;;21.15;68.58;101097.53;4971412;28;20214;-74
2022/10/19 07:36:20;;;;;;;3.80;2.00;;;;;;;21.14;68.86;101098.75;4969915;28;20907;-70
2022/10/19 07:38:45;;;;;;;9.40;6.23;;;;;;;21.09;68.36;101099.06;4965992;28;20461;-72
2022/10/19 07:41:13;;;;;;;14.10;8.43;;;;;;;21.15;70.49;101100.41;4935315;28;20555;-71
2022/10/19 07:43:38;;;;;;;16.90;9.30;;;;;;;21.31;70.23;101101.13;4954094;28;20183;-71
2022/10/19 07:46:05;;;;;;;18.13;12.33;;;;;;;21.48;71.18;101103.50;4969619;28;20488;-71
2022/10/19 07:48:31;;;;;;;20.77;12.03;;;;;;;21.18;69.58;101108.25;4969253;28;20190;-73
2022/10/19 07:50:57;;;;;;;23.20;10.67;;;;;;;21.06;69.52;101108.41;4960304;28;20531;-70
2022/10/19 07:53:22;;;;;;;19.53;11.97;;;;;;;21.01;69.52;101111.59;4938408;29;20222;-70
2022/10/19 07:55:48;;;;;;;15.57;10.40;;;;;;;21.00;69.21;101112.81;4965085;28;20187;-74
2022/10/19 07:58:14;;;;;;;13.10;9.47;;;;;;;21.00;69.67;101114.84;4953343;28;20174;-74
2022/10/19 08:00:39;;;;;;;25.73;10.40;;;;;;;21.05;69.41;101112.50;4970341;28;20190;-74
2022/10/19 08:03:05;;;;;;;17.87;9.83;;;;;;;21.15;69.54;101100.41;5002448;22;20475;-67
2022/10/19 08:05:33;;;;;;;20.90;10.40;;;;;;;21.25;69.18;101101.81;4967577;28;20206;-68
2022/10/19 08:07:59;;;;;;;17.10;10.03;;;;;;;21.27;68.61;101097.34;4951644;28;20909;-68
2022/10/19 08:10:24;;;;;;;15.70;9.43;;;;;;;21.23;68.32;101102.19;4967807;28;20446;-66
2022/10/19 08:12:49;;;;;;;15.60;8.57;;;;;;;21.19;68.21;101101.31;4951651;28;20197;-69
2022/10/19 08:15:15;;;;;;;17.40;9.93;;;;;;;21.19;68.39;101098.44;4960196;28;20574;-68
2022/10/19 08:17:40;;;;;;;13.20;8.80;;;;;;;21.20;68.75;101100.09;4932347;29;20560;-68
2022/10/19 08:20:06;;;;;;;14.37;9.40;;;;;;;21.34;68.82;101091.78;4952001;28;20214;-67
2022/10/19 08:22:31;;;;;;;14.50;8.67;;;;;;;;;;4948025;28;20210;-68
2022/10/19 08:24:57;;;;;;;10.63;7.50;;;;;;;21.33;68.00;101101.56;4941760;28;20297;-67
2022/10/19 08:27:22;;;;;;;12.17;8.40;;;;;;;21.26;68.48;101098.56;4953497;28;20665;-66
2022/10/19 08:29:48;;;;;;;12.90;8.57;;;;;;;21.20;68.28;101097.22;4956287;28;20186;-68
2022/10/19 08:32:14;;;;;;;15.57;10.03;;;;;;;21.57;68.78;101101.22;4939041;28;20191;-67
2022/10/19 08:34:40;;;;;;;12.47;9.53;;;;;;;21.74;68.84;101097.91;4923489;28;20237;-67
2022/10/19 08:37:05;;;;;;;11.80;8.20;;;;;;;21.68;68.74;101090.78;4940417;28;20187;-67
2022/10/19 08:39:31;;;;;;;15.00;8.40;;;;;;;21.59;68.79;101093.06;4930386;28;20494;-65
2022/10/19 08:41:59;;;;;;;17.53;8.00;;;;;;;21.61;69.32;101102.13;4956556;28;20628;-66
2022/10/19 08:44:43;;;;;;;15.40;8.17;;;;;;;21.58;68.94;101094.25;4957310;28;20191;-65
2022/10/19 08:47:21;;;;;;;11.70;7.57;;;;;;;21.56;68.69;101090.94;4955472;28;20485;-66
2022/10/19 08:49:47;;;;;;;12.13;7.43;;;;;;;21.59;68.76;101081.56;4945874;28;20444;-67
2022/10/19 08:52:23;;;;;;;10.67;7.07;;;;;;;21.60;68.13;101082.38;4939048;28;20433;-66
2022/10/19 08:54:57;;;;;;;11.67;6.90;;;;;;;21.59;68.52;101087.31;4956509;28;20193;-66
2022/10/19 08:57:29;;;;;;;8.10;5.87;;;;;;;21.56;68.14;101087.22;4953508;28;20430;-66
2022/10/19 09:00:18;;;;;;;8.23;6.30;;;;;;;21.48;68.61;101091.22;4959696;28;20449;-67
2022/10/19 09:02:57;;;;;;;12.30;6.27;;;;;;;21.43;68.09;101077.97;4937678;28;20448;-66
2022/10/19 09:05:37;;;;;;;8.50;5.07;;;;;;;21.41;68.62;101085.31;4953578;28;20465;-66
2022/10/19 09:08:02;;;;;;;9.70;5.93;;;;;;;21.40;68.54;101075.88;4924987;28;20434;-66
2022/10/19 09:10:31;;;;;;;12.17;6.00;;;;;;;21.52;68.67;101077.75;4922472;28;20433;-67
2022/10/19 09:13:01;;;;;;;10.73;5.60;;;;;;;21.45;68.46;101081.31;4956055;28;20187;-66
2022/10/19 09:15:41;;;;;;;10.43;6.37;;;;;;;21.43;68.48;101075.09;4932408;28;20435;-68
2022/10/19 09:18:26;;;;;;;8.47;5.43;;;;;;;21.54;68.47;101072.44;4918712;28;20466;-68
2022/10/19 09:21:03;;;;;;;8.47;5.33;;;;;;;21.56;68.53;101056.47;4946098;28;20477;-66
2022/10/19 09:23:31;;;;;;;12.83;5.00;;;;;;;21.49;68.59;101061.25;4915792;28;20442;-66
2022/10/19 09:25:56;;;;;;;12.70;5.50;;;;;;;21.43;69.00;101049.25;4951588;28;20467;-67
2022/10/19 09:28:34;;;;;;;9.60;4.90;;;;;;;21.38;68.76;101052.44;4955030;28;20420;-66
2022/10/19 09:30:59;;;;;;;8.63;4.80;;;;;;;21.40;69.13;101054.91;4959362;28;20183;-67
2022/10/19 09:33:35;;;;;;;14.67;5.50;;;;;;;21.37;68.90;101056.53;4957879;28;20449;-67
2022/10/19 09:36:01;;;;;;;12.33;5.90;;;;;;;21.34;68.95;101045.81;4941913;28;20241;-67
2022/10/19 09:38:27;;;;;;;12.77;5.90;;;;;;;21.33;68.97;101047.00;4947201;28;20453;-67
2022/10/19 09:40:52;;;;;;;13.00;6.20;;;;;;;21.31;69.21;101043.69;4946632;28;20457;-66
2022/10/19 09:43:19;;;;;;;12.67;5.60;;;;;;;21.32;69.26;101048.22;4948489;28;20222;-68
2022/10/19 09:45:55;;;;;;;15.83;5.43;;;;;;;21.31;69.35;101043.69;4924115;28;20238;-68
2022/10/19 09:48:43;;;;;;;11.87;4.57;;;;;;;21.32;69.66;101041.66;4957055;28;20437;-67
2022/10/19 09:51:13;;;;;;;11.37;5.50;;;;;;;21.33;69.78;101044.13;4934455;28;20529;-68
2022/10/19 09:53:43;;;;;;;8.00;5.43;;;;;;;21.32;69.95;101048.22;4922485;28;20421;-68
2022/10/19 09:56:09;;;;;;;13.70;5.43;;;;;;;21.33;69.37;101043.31;4943084;28;20436;-68
2022/10/19 09:58:34;;;;;;;10.07;4.50;;;;;;;21.33;69.36;101047.00;4932620;28;21397;-68
2022/10/19 10:01:00;;;;;;;13.87;4.80;;;;;;;21.32;69.87;101035.91;4954017;28;20189;-68
2022/10/19 10:03:39;;;;;;;8.63;4.00;;;;;;;21.32;69.69;101030.16;4952614;28;20242;-68
2022/10/19 10:06:15;;;;;;;9.37;3.70;;;;;;;21.31;69.55;101035.06;4938083;29;20506;-68
2022/10/19 10:08:56;;;;;;;14.03;5.57;;;;;;;21.32;69.58;101033.03;4918529;29;20522;-68
2022/10/19 10:11:22;;;;;;;6.60;4.20;;;;;;;21.32;69.62;101024.44;4946165;29;20489;-69
2022/10/19 10:13:49;;;;;;;11.47;4.50;;;;;;;21.31;69.52;101023.59;4952709;28;20463;-69
2022/10/19 10:16:16;;;;;;;10.53;4.00;;;;;;;21.31;69.70;101020.72;4935751;29;20431;-69
2022/10/19 10:18:55;;;;;;;7.83;4.03;;;;;;;21.30;69.66;101027.69;4936051;28;20433;-70
2022/10/19 10:21:21;;;;;;;8.90;4.17;;;;;;;21.30;69.40;101021.09;4948851;28;20413;-69
2022/10/19 10:24:04;;;;;;;7.37;3.70;;;;;;;21.28;69.94;101021.47;4934133;29;20435;-69
2022/10/19 10:26:30;;;;;;;7.10;4.13;;;;;;;21.29;69.41;101013.69;4933512;29;20459;-69
2022/10/19 10:28:55;;;;;;;10.03;4.23;;;;;;;21.30;69.45;101016.19;4934246;29;20530;-69
2022/10/19 10:31:26;;;;;;;7.67;3.67;;;;;;;21.30;69.74;101021.09;4939040;29;20192;-69
2022/10/19 10:33:53;;;;;;;4.97;3.20;;;;;;;21.29;69.72;101017.41;4934392;29;20200;-69
2022/10/19 10:36:19;;;;;;;8.90;4.40;;;;;;;21.30;69.83;101018.22;4934387;29;20561;-69
2022/10/19 10:38:46;;;;;;;5.67;3.87;;;;;;;21.29;69.42;101020.28;4916969;29;21479;-69
2022/10/19 10:41:16;;;;;;;8.40;3.70;;;;;;;21.30;69.55;101016.19;4910517;29;20198;-69
2022/10/19 10:43:50;;;;;;;5.40;3.07;;;;;;;21.29;70.03;101008.78;4935802;29;20432;-68
2022/10/19 10:46:18;;;;;;;8.60;4.07;;;;;;;21.30;69.36;101006.72;4950381;28;20467;-69
2022/10/19 10:48:45;;;;;;;10.57;4.10;;;;;;;21.31;69.58;101017.84;4934948;29;20531;-69
2022/10/19 10:51:25;;;;;;;7.50;3.70;;;;;;;21.30;69.67;101009.59;4919417;29;20502;-69
2022/10/19 10:53:50;;;;;;;7.80;4.03;;;;;;;21.29;69.58;101008.78;4948766;28;20447;-69
2022/10/19 10:56:24;;;;;;;5.57;4.00;;;;;;;21.31;69.36;101003.47;4920073;29;20511;-70
2022/10/19 10:58:55;;;;;;;9.93;3.20;;;;;;;21.30;69.36;101003.84;4927519;29;20195;-70
2022/10/19 11:01:30;;;;;;;6.27;3.50;;;;;;;21.31;69.35;101003.47;4931958;28;20890;-69
2022/10/19 11:04:03;;;;;;;4.40;3.40;;;;;;;21.30;69.42;101001.81;4951258;28;20954;-69
2022/10/19 11:06:29;;;;;;;6.60;3.90;;;;;;;21.30;69.80;100998.09;4921848;29;21308;-69
2022/10/19 11:09:30;;;;;;;5.30;3.60;;;;;;;21.30;69.71;100993.22;4921243;29;20453;-69
2022/10/19 11:11:56;;;;;;;7.27;3.40;;;;;;;21.31;69.20;100988.28;4930471;28;20194;-69
2022/10/19 11:14:33;;;;;;;5.27;3.57;;;;;;;21.31;69.89;100988.28;4936263;29;20474;-69
2022/10/19 11:17:02;;;;;;;5.27;3.00;;;;;;;21.32;69.36;100990.78;4936929;29;20186;-69
2022/10/19 11:19:33;;;;;;;5.67;3.40;;;;;;;21.32;68.71;100985.03;4945202;29;20887;-69
2022/10/19 11:22:17;;;;;;;6.57;3.27;;;;;;;21.33;69.49;100980.94;4939207;28;21343;-69
2022/10/19 11:24:49;;;;;;;5.90;3.20;;;;;;;21.31;69.65;100977.63;4941199;29;20434;-69
2022/10/19 11:27:29;;;;;;;6.80;3.77;;;;;;;21.34;69.44;100970.28;4936284;29;20439;-69
2022/10/19 11:30:17;;;;;;;5.07;3.00;;;;;;;21.35;69.34;100977.69;4935577;29;20442;-69